sensor_id;sensor_type;location;lat;lon;timestamp;P1;durP1;ratioP1;P2;durP2;ratioP2
18290;SDS011;9271;48.590;8.866;2024-03-22T00:00:15;11.43;;;10.23;;
18290;SDS011;9271;48.590;8.866;2024-03-22T00:02:42;12.47;;;10.63;;
18290;SDS011;9271;48.590;8.866;2024-03-22T00:05:08;12.70;;;10.97;;
18290;SDS011;9271;48.590;8.866;2024-03-22T00:07:34;12.33;;;10.90;;
18290;SDS011;9271;48.590;8.866;2024-03-22T00:10:01;11.77;;;10.30;;
18290;SDS011;9271;48.590;8.866;2024-03-22T00:12:28;10.83;;;9.53;;
18290;SDS011;9271;48.590;8.866;2024-03-22T00:14:54;9.67;;;8.67;;
18290;SDS011;9271;48.590;8.866;2024-03-22T00:17:22;11.73;;;9.27;;
18290;SDS011;9271;48.590;8.866;2024-03-22T00:19:48;10.60;;;8.87;;
18290;SDS011;9271;48.590;8.866;2024-03-22T00:22:14;9.50;;;8.40;;
18290;SDS011;9271;48.590;8.866;2024-03-22T00:24:40;10.67;;;9.50;;
18290;SDS011;9271;48.590;8.866;2024-03-22T00:27:07;11.80;;;9.80;;
18290;SDS011;9271;48.590;8.866;2024-03-22T00:29:33;11.87;;;9.10;;
18290;SDS011;9271;48.590;8.866;2024-03-22T00:31:59;10.53;;;9.43;;
18290;SDS011;9271;48.590;8.866;2024-03-22T00:34:26;9.63;;;8.63;;
18290;SDS011;9271;48.590;8.866;2024-03-22T00:36:53;11.90;;;10.10;;
18290;SDS011;9271;48.590;8.866;2024-03-22T00:39:19;11.23;;;9.43;;
18290;SDS011;9271;48.590;8.866;2024-03-22T00:41:45;10.93;;;8.70;;
18290;SDS011;9271;48.590;8.866;2024-03-22T00:44:11;9.70;;;8.40;;
18290;SDS011;9271;48.590;8.866;2024-03-22T00:46:37;10.30;;;9.10;;
18290;SDS011;9271;48.590;8.866;2024-03-22T00:49:03;10.00;;;9.00;;
18290;SDS011;9271;48.590;8.866;2024-03-22T00:51:31;11.60;;;9.30;;
18290;SDS011;9271;48.590;8.866;2024-03-22T00:53:57;11.73;;;9.33;;
18290;SDS011;9271;48.590;8.866;2024-03-22T00:56:23;9.73;;;8.83;;
18290;SDS011;9271;48.590;8.866;2024-03-22T00:58:50;9.33;;;8.23;;
18290;SDS011;9271;48.590;8.866;2024-03-22T01:01:16;9.57;;;8.67;;
18290;SDS011;9271;48.590;8.866;2024-03-22T01:03:42;9.93;;;8.43;;
18290;SDS011;9271;48.590;8.866;2024-03-22T01:06:08;9.87;;;8.97;;
18290;SDS011;9271;48.590;8.866;2024-03-22T01:08:36;9.93;;;8.90;;
18290;SDS011;9271;48.590;8.866;2024-03-22T01:11:01;11.53;;;9.30;;
18290;SDS011;9271;48.590;8.866;2024-03-22T01:13:28;9.40;;;8.23;;
18290;SDS011;9271;48.590;8.866;2024-03-22T01:15:54;11.10;;;8.93;;
18290;SDS011;9271;48.590;8.866;2024-03-22T01:18:21;10.47;;;9.07;;
18290;SDS011;9271;48.590;8.866;2024-03-22T01:20:47;10.20;;;9.10;;
18290;SDS011;9271;48.590;8.866;2024-03-22T01:23:13;10.40;;;9.30;;
18290;SDS011;9271;48.590;8.866;2024-03-22T01:25:40;9.77;;;8.77;;
18290;SDS011;9271;48.590;8.866;2024-03-22T01:28:07;12.73;;;8.97;;
18290;SDS011;9271;48.590;8.866;2024-03-22T01:30:33;10.80;;;9.37;;
18290;SDS011;9271;48.590;8.866;2024-03-22T01:33:01;9.30;;;8.40;;
18290;SDS011;9271;48.590;8.866;2024-03-22T01:35:27;10.37;;;9.27;;
18290;SDS011;9271;48.590;8.866;2024-03-22T01:37:54;12.13;;;10.87;;
18290;SDS011;9271;48.590;8.866;2024-03-22T01:40:19;13.07;;;11.70;;
18290;SDS011;9271;48.590;8.866;2024-03-22T01:42:47;14.70;;;11.60;;
18290;SDS011;9271;48.590;8.866;2024-03-22T01:45:13;14.57;;;11.27;;
18290;SDS011;9271;48.590;8.866;2024-03-22T01:47:41;14.20;;;12.00;;
18290;SDS011;9271;48.590;8.866;2024-03-22T01:50:07;14.60;;;12.93;;
18290;SDS011;9271;48.590;8.866;2024-03-22T01:52:37;15.93;;;12.47;;
18290;SDS011;9271;48.590;8.866;2024-03-22T01:55:04;13.37;;;11.97;;
18290;SDS011;9271;48.590;8.866;2024-03-22T01:57:31;12.80;;;11.30;;
18290;SDS011;9271;48.590;8.866;2024-03-22T01:59:59;11.97;;;9.77;;
18290;SDS011;9271;48.590;8.866;2024-03-22T02:02:26;11.90;;;9.33;;
18290;SDS011;9271;48.590;8.866;2024-03-22T02:04:52;10.37;;;9.27;;
18290;SDS011;9271;48.590;8.866;2024-03-22T02:07:18;10.43;;;8.60;;
18290;SDS011;9271;48.590;8.866;2024-03-22T02:09:44;10.73;;;8.30;;
18290;SDS011;9271;48.590;8.866;2024-03-22T02:12:11;11.00;;;8.57;;
18290;SDS011;9271;48.590;8.866;2024-03-22T02:14:37;10.40;;;8.33;;
18290;SDS011;9271;48.590;8.866;2024-03-22T02:17:05;12.50;;;8.60;;
18290;SDS011;9271;48.590;8.866;2024-03-22T02:19:31;9.17;;;8.23;;
18290;SDS011;9271;48.590;8.866;2024-03-22T02:21:57;9.07;;;7.83;;
18290;SDS011;9271;48.590;8.866;2024-03-22T02:24:24;9.13;;;8.03;;
18290;SDS011;9271;48.590;8.866;2024-03-22T02:26:51;11.43;;;8.57;;
18290;SDS011;9271;48.590;8.866;2024-03-22T02:29:17;10.17;;;9.03;;
18290;SDS011;9271;48.590;8.866;2024-03-22T02:31:43;10.03;;;9.03;;
18290;SDS011;9271;48.590;8.866;2024-03-22T02:34:09;10.97;;;9.83;;
18290;SDS011;9271;48.590;8.866;2024-03-22T02:36:36;9.80;;;8.80;;
18290;SDS011;9271;48.590;8.866;2024-03-22T02:39:01;11.90;;;9.77;;
18290;SDS011;9271;48.590;8.866;2024-03-22T02:41:30;11.53;;;10.07;;
18290;SDS011;9271;48.590;8.866;2024-03-22T02:43:56;13.07;;;10.27;;
18290;SDS011;9271;48.590;8.866;2024-03-22T02:46:23;13.40;;;12.00;;
18290;SDS011;9271;48.590;8.866;2024-03-22T02:48:48;14.43;;;12.30;;
18290;SDS011;9271;48.590;8.866;2024-03-22T02:51:15;13.50;;;12.10;;
18290;SDS011;9271;48.590;8.866;2024-03-22T02:53:41;14.73;;;12.33;;
18290;SDS011;9271;48.590;8.866;2024-03-22T02:56:07;16.33;;;13.20;;
18290;SDS011;9271;48.590;8.866;2024-03-22T02:58:35;14.90;;;12.93;;
18290;SDS011;9271;48.590;8.866;2024-03-22T03:01:02;14.70;;;12.27;;
18290;SDS011;9271;48.590;8.866;2024-03-22T03:03:28;13.40;;;12.00;;
18290;SDS011;9271;48.590;8.866;2024-03-22T03:05:55;14.60;;;11.50;;
18290;SDS011;9271;48.590;8.866;2024-03-22T03:08:20;12.37;;;10.77;;
18290;SDS011;9271;48.590;8.866;2024-03-22T03:10:47;11.33;;;10.10;;
18290;SDS011;9271;48.590;8.866;2024-03-22T03:13:13;10.87;;;9.73;;
18290;SDS011;9271;48.590;8.866;2024-03-22T03:15:41;11.30;;;10.13;;
18290;SDS011;9271;48.590;8.866;2024-03-22T03:18:06;10.97;;;9.30;;
18290;SDS011;9271;48.590;8.866;2024-03-22T03:20:33;11.23;;;9.63;;
18290;SDS011;9271;48.590;8.866;2024-03-22T03:22:59;10.53;;;9.43;;
18290;SDS011;9271;48.590;8.866;2024-03-22T03:25:26;12.27;;;9.40;;
18290;SDS011;9271;48.590;8.866;2024-03-22T03:27:52;12.53;;;9.20;;
18290;SDS011;9271;48.590;8.866;2024-03-22T03:30:19;10.23;;;9.17;;
18290;SDS011;9271;48.590;8.866;2024-03-22T03:32:46;10.83;;;9.07;;
18290;SDS011;9271;48.590;8.866;2024-03-22T03:35:12;11.33;;;10.23;;
18290;SDS011;9271;48.590;8.866;2024-03-22T03:37:38;10.60;;;9.50;;
18290;SDS011;9271;48.590;8.866;2024-03-22T03:40:05;10.00;;;8.97;;
18290;SDS011;9271;48.590;8.866;2024-03-22T03:42:32;10.83;;;9.73;;
18290;SDS011;9271;48.590;8.866;2024-03-22T03:44:59;10.63;;;9.53;;
18290;SDS011;9271;48.590;8.866;2024-03-22T03:47:24;10.07;;;9.07;;
18290;SDS011;9271;48.590;8.866;2024-03-22T03:49:52;11.17;;;9.23;;
18290;SDS011;9271;48.590;8.866;2024-03-22T03:52:18;10.83;;;9.17;;
18290;SDS011;9271;48.590;8.866;2024-03-22T03:54:45;10.00;;;8.83;;
18290;SDS011;9271;48.590;8.866;2024-03-22T03:57:10;11.90;;;9.80;;
18290;SDS011;9271;48.590;8.866;2024-03-22T03:59:37;11.63;;;9.03;;
18290;SDS011;9271;48.590;8.866;2024-03-22T04:02:03;10.77;;;9.67;;
18290;SDS011;9271;48.590;8.866;2024-03-22T04:04:29;11.07;;;9.27;;
18290;SDS011;9271;48.590;8.866;2024-03-22T04:06:57;10.97;;;9.80;;
18290;SDS011;9271;48.590;8.866;2024-03-22T04:09:23;12.20;;;9.40;;
18290;SDS011;9271;48.590;8.866;2024-03-22T04:11:49;12.23;;;9.73;;
18290;SDS011;9271;48.590;8.866;2024-03-22T04:14:15;12.80;;;9.70;;
18290;SDS011;9271;48.590;8.866;2024-03-22T04:16:41;10.13;;;9.13;;
18290;SDS011;9271;48.590;8.866;2024-03-22T04:19:08;11.47;;;9.73;;
18290;SDS011;9271;48.590;8.866;2024-03-22T04:21:33;10.77;;;9.60;;
18290;SDS011;9271;48.590;8.866;2024-03-22T04:24:01;12.23;;;9.80;;
18290;SDS011;9271;48.590;8.866;2024-03-22T04:26:27;11.93;;;10.80;;
18290;SDS011;9271;48.590;8.866;2024-03-22T04:28:54;11.47;;;10.10;;
18290;SDS011;9271;48.590;8.866;2024-03-22T04:31:20;12.53;;;10.60;;
18290;SDS011;9271;48.590;8.866;2024-03-22T04:33:46;11.30;;;10.20;;
18290;SDS011;9271;48.590;8.866;2024-03-22T04:36:12;12.00;;;10.13;;
18290;SDS011;9271;48.590;8.866;2024-03-22T04:38:39;11.53;;;10.27;;
18290;SDS011;9271;48.590;8.866;2024-03-22T04:41:07;14.17;;;10.20;;
18290;SDS011;9271;48.590;8.866;2024-03-22T04:43:34;10.50;;;9.40;;
18290;SDS011;9271;48.590;8.866;2024-03-22T04:46:01;11.20;;;9.97;;
18290;SDS011;9271;48.590;8.866;2024-03-22T04:48:27;13.20;;;11.03;;
18290;SDS011;9271;48.590;8.866;2024-03-22T04:50:53;11.47;;;10.37;;
18290;SDS011;9271;48.590;8.866;2024-03-22T04:53:20;13.17;;;10.20;;
18290;SDS011;9271;48.590;8.866;2024-03-22T04:55:46;13.50;;;10.83;;
18290;SDS011;9271;48.590;8.866;2024-03-22T04:58:15;11.77;;;10.00;;
18290;SDS011;9271;48.590;8.866;2024-03-22T05:00:41;13.53;;;10.50;;
18290;SDS011;9271;48.590;8.866;2024-03-22T05:03:08;11.93;;;10.57;;
18290;SDS011;9271;48.590;8.866;2024-03-22T05:05:33;12.50;;;10.73;;
18290;SDS011;9271;48.590;8.866;2024-03-22T05:08:00;12.40;;;10.50;;
18290;SDS011;9271;48.590;8.866;2024-03-22T05:10:26;14.17;;;10.43;;
18290;SDS011;9271;48.590;8.866;2024-03-22T05:12:54;12.30;;;10.93;;
18290;SDS011;9271;48.590;8.866;2024-03-22T05:15:21;11.97;;;10.53;;
18290;SDS011;9271;48.590;8.866;2024-03-22T05:17:48;13.57;;;10.23;;
18290;SDS011;9271;48.590;8.866;2024-03-22T05:20:15;13.47;;;10.97;;
18290;SDS011;9271;48.590;8.866;2024-03-22T05:22:41;11.67;;;10.40;;
18290;SDS011;9271;48.590;8.866;2024-03-22T05:25:08;11.70;;;10.23;;
18290;SDS011;9271;48.590;8.866;2024-03-22T05:27:34;13.17;;;10.57;;
18290;SDS011;9271;48.590;8.866;2024-03-22T05:30:01;11.97;;;10.67;;
18290;SDS011;9271;48.590;8.866;2024-03-22T05:32:30;11.20;;;10.00;;
18290;SDS011;9271;48.590;8.866;2024-03-22T05:34:57;11.33;;;10.13;;
18290;SDS011;9271;48.590;8.866;2024-03-22T05:37:22;11.03;;;10.00;;
18290;SDS011;9271;48.590;8.866;2024-03-22T05:39:49;10.83;;;9.53;;
18290;SDS011;9271;48.590;8.866;2024-03-22T05:42:15;11.83;;;10.27;;
18290;SDS011;9271;48.590;8.866;2024-03-22T05:44:41;12.43;;;10.27;;
18290;SDS011;9271;48.590;8.866;2024-03-22T05:47:08;13.37;;;10.47;;
18290;SDS011;9271;48.590;8.866;2024-03-22T05:49:36;12.60;;;11.13;;
18290;SDS011;9271;48.590;8.866;2024-03-22T05:52:01;12.23;;;10.93;;
18290;SDS011;9271;48.590;8.866;2024-03-22T05:54:28;11.73;;;10.53;;
18290;SDS011;9271;48.590;8.866;2024-03-22T05:56:54;12.63;;;11.33;;
18290;SDS011;9271;48.590;8.866;2024-03-22T05:59:21;14.27;;;10.80;;
18290;SDS011;9271;48.590;8.866;2024-03-22T06:01:47;12.03;;;10.70;;
18290;SDS011;9271;48.590;8.866;2024-03-22T06:04:14;11.73;;;10.33;;
18290;SDS011;9271;48.590;8.866;2024-03-22T06:06:41;11.47;;;10.10;;
18290;SDS011;9271;48.590;8.866;2024-03-22T06:09:07;12.13;;;10.50;;
18290;SDS011;9271;48.590;8.866;2024-03-22T06:11:36;12.27;;;10.70;;
18290;SDS011;9271;48.590;8.866;2024-03-22T06:14:02;13.83;;;11.27;;
18290;SDS011;9271;48.590;8.866;2024-03-22T06:16:29;13.27;;;10.97;;
18290;SDS011;9271;48.590;8.866;2024-03-22T06:18:55;12.13;;;10.23;;
18290;SDS011;9271;48.590;8.866;2024-03-22T06:21:21;12.03;;;10.63;;
18290;SDS011;9271;48.590;8.866;2024-03-22T06:23:52;11.57;;;10.07;;
18290;SDS011;9271;48.590;8.866;2024-03-22T06:26:18;11.03;;;9.90;;
18290;SDS011;9271;48.590;8.866;2024-03-22T06:28:44;11.17;;;9.73;;
18290;SDS011;9271;48.590;8.866;2024-03-22T06:31:10;10.23;;;9.13;;
18290;SDS011;9271;48.590;8.866;2024-03-22T06:33:37;11.53;;;8.90;;
18290;SDS011;9271;48.590;8.866;2024-03-22T06:36:03;11.97;;;8.67;;
18290;SDS011;9271;48.590;8.866;2024-03-22T06:38:30;9.40;;;7.43;;
18290;SDS011;9271;48.590;8.866;2024-03-22T06:40:57;7.77;;;6.97;;
18290;SDS011;9271;48.590;8.866;2024-03-22T06:43:24;10.23;;;7.33;;
18290;SDS011;9271;48.590;8.866;2024-03-22T06:45:50;8.37;;;7.57;;
18290;SDS011;9271;48.590;8.866;2024-03-22T06:48:17;9.90;;;7.33;;
18290;SDS011;9271;48.590;8.866;2024-03-22T06:50:42;7.80;;;6.40;;
18290;SDS011;9271;48.590;8.866;2024-03-22T06:53:09;10.83;;;6.03;;
18290;SDS011;9271;48.590;8.866;2024-03-22T06:55:36;9.37;;;6.93;;
18290;SDS011;9271;48.590;8.866;2024-03-22T06:58:04;7.50;;;6.37;;
18290;SDS011;9271;48.590;8.866;2024-03-22T07:00:30;6.50;;;5.83;;
18290;SDS011;9271;48.590;8.866;2024-03-22T07:02:59;6.93;;;6.23;;
18290;SDS011;9271;48.590;8.866;2024-03-22T07:05:27;7.83;;;5.97;;
18290;SDS011;9271;48.590;8.866;2024-03-22T07:07:54;6.37;;;5.83;;
18290;SDS011;9271;48.590;8.866;2024-03-22T07:10:22;7.97;;;6.10;;
18290;SDS011;9271;48.590;8.866;2024-03-22T07:12:52;7.87;;;6.33;;
18290;SDS011;9271;48.590;8.866;2024-03-22T07:15:20;9.17;;;6.63;;
18290;SDS011;9271;48.590;8.866;2024-03-22T07:17:47;6.87;;;6.07;;
18290;SDS011;9271;48.590;8.866;2024-03-22T07:20:13;7.00;;;6.30;;
18290;SDS011;9271;48.590;8.866;2024-03-22T07:22:39;6.80;;;6.20;;
18290;SDS011;9271;48.590;8.866;2024-03-22T07:25:05;7.37;;;6.67;;
18290;SDS011;9271;48.590;8.866;2024-03-22T07:27:34;6.60;;;6.00;;
18290;SDS011;9271;48.590;8.866;2024-03-22T07:30:00;8.33;;;6.67;;
18290;SDS011;9271;48.590;8.866;2024-03-22T07:32:28;9.33;;;6.67;;
18290;SDS011;9271;48.590;8.866;2024-03-22T07:34:53;8.27;;;6.63;;
18290;SDS011;9271;48.590;8.866;2024-03-22T07:37:20;7.60;;;6.70;;
18290;SDS011;9271;48.590;8.866;2024-03-22T07:39:46;7.10;;;6.40;;
18290;SDS011;9271;48.590;8.866;2024-03-22T07:42:13;7.27;;;6.57;;
18290;SDS011;9271;48.590;8.866;2024-03-22T07:44:38;7.23;;;6.50;;
18290;SDS011;9271;48.590;8.866;2024-03-22T07:47:05;9.60;;;6.10;;
18290;SDS011;9271;48.590;8.866;2024-03-22T07:49:32;7.50;;;6.20;;
18290;SDS011;9271;48.590;8.866;2024-03-22T07:51:59;7.00;;;5.70;;
18290;SDS011;9271;48.590;8.866;2024-03-22T07:54:25;6.20;;;5.50;;
18290;SDS011;9271;48.590;8.866;2024-03-22T07:56:51;7.00;;;5.93;;
18290;SDS011;9271;48.590;8.866;2024-03-22T07:59:17;7.13;;;5.90;;
18290;SDS011;9271;48.590;8.866;2024-03-22T08:01:44;12.80;;;5.73;;
18290;SDS011;9271;48.590;8.866;2024-03-22T08:04:10;6.40;;;5.90;;
18290;SDS011;9271;48.590;8.866;2024-03-22T08:06:38;6.50;;;5.60;;
18290;SDS011;9271;48.590;8.866;2024-03-22T08:09:03;6.73;;;6.10;;
18290;SDS011;9271;48.590;8.866;2024-03-22T08:11:30;6.93;;;6.20;;
18290;SDS011;9271;48.590;8.866;2024-03-22T08:13:56;9.13;;;6.07;;
18290;SDS011;9271;48.590;8.866;2024-03-22T08:16:27;8.53;;;6.37;;
18290;SDS011;9271;48.590;8.866;2024-03-22T08:18:52;7.73;;;6.40;;
18290;SDS011;9271;48.590;8.866;2024-03-22T08:21:19;6.43;;;5.77;;
18290;SDS011;9271;48.590;8.866;2024-03-22T08:23:46;9.98;;;6.40;;
18290;SDS011;9271;48.590;8.866;2024-03-22T08:26:13;7.18;;;6.47;;
18290;SDS011;9271;48.590;8.866;2024-03-22T08:28:38;9.30;;;6.70;;
18290;SDS011;9271;48.590;8.866;2024-03-22T08:31:05;7.18;;;6.50;;
18290;SDS011;9271;48.590;8.866;2024-03-22T08:33:31;7.53;;;6.72;;
18290;SDS011;9271;48.590;8.866;2024-03-22T08:35:57;6.95;;;6.30;;
18290;SDS011;9271;48.590;8.866;2024-03-22T08:38:23;9.20;;;6.40;;
18290;SDS011;9271;48.590;8.866;2024-03-22T08:40:51;7.00;;;6.32;;
18290;SDS011;9271;48.590;8.866;2024-03-22T08:43:17;7.68;;;6.72;;
18290;SDS011;9271;48.590;8.866;2024-03-22T08:45:44;9.32;;;6.45;;
18290;SDS011;9271;48.590;8.866;2024-03-22T08:48:10;9.30;;;6.35;;
18290;SDS011;9271;48.590;8.866;2024-03-22T08:50:36;10.13;;;6.90;;
18290;SDS011;9271;48.590;8.866;2024-03-22T08:53:02;7.57;;;6.65;;
18290;SDS011;9271;48.590;8.866;2024-03-22T08:55:29;7.95;;;7.00;;
18290;SDS011;9271;48.590;8.866;2024-03-22T08:57:56;7.95;;;6.90;;
18290;SDS011;9271;48.590;8.866;2024-03-22T09:00:23;9.60;;;6.40;;
18290;SDS011;9271;48.590;8.866;2024-03-22T09:02:49;8.63;;;6.63;;
18290;SDS011;9271;48.590;8.866;2024-03-22T09:05:15;8.45;;;6.57;;
18290;SDS011;9271;48.590;8.866;2024-03-22T09:07:41;7.13;;;6.35;;
18290;SDS011;9271;48.590;8.866;2024-03-22T09:10:08;8.20;;;6.57;;
18290;SDS011;9271;48.590;8.866;2024-03-22T09:12:34;8.50;;;6.63;;
18290;SDS011;9271;48.590;8.866;2024-03-22T09:15:03;9.45;;;6.38;;
18290;SDS011;9271;48.590;8.866;2024-03-22T09:17:29;7.90;;;7.10;;
18290;SDS011;9271;48.590;8.866;2024-03-22T09:19:56;7.88;;;6.15;;
18290;SDS011;9271;48.590;8.866;2024-03-22T09:22:22;8.48;;;6.75;;
18290;SDS011;9271;48.590;8.866;2024-03-22T09:24:48;7.60;;;6.85;;
18290;SDS011;9271;48.590;8.866;2024-03-22T09:27:15;8.05;;;6.65;;
18290;SDS011;9271;48.590;8.866;2024-03-22T09:29:41;7.93;;;7.20;;
18290;SDS011;9271;48.590;8.866;2024-03-22T09:32:10;7.47;;;6.63;;
18290;SDS011;9271;48.590;8.866;2024-03-22T09:34:36;6.95;;;6.28;;
18290;SDS011;9271;48.590;8.866;2024-03-22T09:37:02;8.15;;;6.80;;
18290;SDS011;9271;48.590;8.866;2024-03-22T09:39:29;8.48;;;6.55;;
18290;SDS011;9271;48.590;8.866;2024-03-22T09:41:57;8.27;;;7.10;;
18290;SDS011;9271;48.590;8.866;2024-03-22T09:44:24;8.75;;;7.25;;
18290;SDS011;9271;48.590;8.866;2024-03-22T09:46:52;9.98;;;7.47;;
18290;SDS011;9271;48.590;8.866;2024-03-22T09:49:21;8.20;;;6.50;;
18290;SDS011;9271;48.590;8.866;2024-03-22T09:51:48;7.82;;;7.00;;
18290;SDS011;9271;48.590;8.866;2024-03-22T09:54:17;9.20;;;6.57;;
18290;SDS011;9271;48.590;8.866;2024-03-22T09:56:43;8.55;;;7.47;;
18290;SDS011;9271;48.590;8.866;2024-03-22T09:59:13;7.43;;;6.72;;
18290;SDS011;9271;48.590;8.866;2024-03-22T10:01:38;7.90;;;7.10;;
18290;SDS011;9271;48.590;8.866;2024-03-22T10:04:07;7.57;;;6.43;;
18290;SDS011;9271;48.590;8.866;2024-03-22T10:06:35;8.77;;;7.30;;
18290;SDS011;9271;48.590;8.866;2024-03-22T10:09:02;7.68;;;6.85;;
18290;SDS011;9271;48.590;8.866;2024-03-22T10:11:30;7.35;;;6.65;;
18290;SDS011;9271;48.590;8.866;2024-03-22T10:13:57;9.93;;;7.00;;
18290;SDS011;9271;48.590;8.866;2024-03-22T10:16:24;8.73;;;6.78;;
18290;SDS011;9271;48.590;8.866;2024-03-22T10:18:51;8.95;;;6.60;;
18290;SDS011;9271;48.590;8.866;2024-03-22T10:21:17;10.75;;;6.57;;
18290;SDS011;9271;48.590;8.866;2024-03-22T10:23:46;11.40;;;6.38;;
18290;SDS011;9271;48.590;8.866;2024-03-22T10:26:13;6.30;;;5.70;;
18290;SDS011;9271;48.590;8.866;2024-03-22T10:28:44;7.45;;;6.30;;
18290;SDS011;9271;48.590;8.866;2024-03-22T10:31:10;8.32;;;6.65;;
18290;SDS011;9271;48.590;8.866;2024-03-22T10:33:37;6.50;;;5.80;;
18290;SDS011;9271;48.590;8.866;2024-03-22T10:36:05;7.72;;;6.43;;
18290;SDS011;9271;48.590;8.866;2024-03-22T10:38:33;8.10;;;7.30;;
18290;SDS011;9271;48.590;8.866;2024-03-22T10:41:04;10.52;;;7.13;;
18290;SDS011;9271;48.590;8.866;2024-03-22T10:43:31;7.80;;;6.30;;
18290;SDS011;9271;48.590;8.866;2024-03-22T10:45:59;8.40;;;7.07;;
18290;SDS011;9271;48.590;8.866;2024-03-22T10:48:29;7.07;;;6.15;;
18290;SDS011;9271;48.590;8.866;2024-03-22T10:50:57;8.68;;;6.25;;
18290;SDS011;9271;48.590;8.866;2024-03-22T10:53:26;8.25;;;6.53;;
18290;SDS011;9271;48.590;8.866;2024-03-22T10:55:54;6.88;;;6.25;;
18290;SDS011;9271;48.590;8.866;2024-03-22T10:58:26;7.57;;;6.45;;
18290;SDS011;9271;48.590;8.866;2024-03-22T11:00:52;6.25;;;5.63;;
18290;SDS011;9271;48.590;8.866;2024-03-22T11:03:19;6.70;;;5.95;;
18290;SDS011;9271;48.590;8.866;2024-03-22T11:05:45;8.35;;;6.50;;
18290;SDS011;9271;48.590;8.866;2024-03-22T11:08:12;8.63;;;6.55;;
18290;SDS011;9271;48.590;8.866;2024-03-22T11:10:38;6.78;;;6.05;;
18290;SDS011;9271;48.590;8.866;2024-03-22T11:13:06;7.00;;;6.35;;
18290;SDS011;9271;48.590;8.866;2024-03-22T11:15:35;7.45;;;5.53;;
18290;SDS011;9271;48.590;8.866;2024-03-22T11:18:01;7.03;;;6.30;;
18290;SDS011;9271;48.590;8.866;2024-03-22T11:20:27;7.60;;;6.28;;
18290;SDS011;9271;48.590;8.866;2024-03-22T11:22:54;7.90;;;6.07;;
18290;SDS011;9271;48.590;8.866;2024-03-22T11:25:21;7.05;;;5.30;;
18290;SDS011;9271;48.590;8.866;2024-03-22T11:27:48;7.53;;;5.82;;
18290;SDS011;9271;48.590;8.866;2024-03-22T11:30:14;7.50;;;5.32;;
18290;SDS011;9271;48.590;8.866;2024-03-22T11:32:43;6.25;;;5.65;;
18290;SDS011;9271;48.590;8.866;2024-03-22T11:35:10;6.93;;;5.93;;
18290;SDS011;9271;48.590;8.866;2024-03-22T11:37:38;6.82;;;5.30;;
18290;SDS011;9271;48.590;8.866;2024-03-22T11:40:04;6.20;;;5.15;;
18290;SDS011;9271;48.590;8.866;2024-03-22T11:42:33;5.03;;;4.50;;
18290;SDS011;9271;48.590;8.866;2024-03-22T11:45:00;6.63;;;4.95;;
18290;SDS011;9271;48.590;8.866;2024-03-22T11:47:28;5.10;;;4.55;;
18290;SDS011;9271;48.590;8.866;2024-03-22T11:49:55;5.45;;;4.85;;
18290;SDS011;9271;48.590;8.866;2024-03-22T11:52:23;5.32;;;4.82;;
18290;SDS011;9271;48.590;8.866;2024-03-22T11:54:50;7.13;;;5.53;;
18290;SDS011;9271;48.590;8.866;2024-03-22T11:57:17;6.57;;;5.05;;
18290;SDS011;9271;48.590;8.866;2024-03-22T11:59:43;4.65;;;4.22;;
18290;SDS011;9271;48.590;8.866;2024-03-22T12:02:09;6.72;;;4.45;;
18290;SDS011;9271;48.590;8.866;2024-03-22T12:04:35;6.32;;;4.07;;
18290;SDS011;9271;48.590;8.866;2024-03-22T12:07:09;3.80;;;3.47;;
18290;SDS011;9271;48.590;8.866;2024-03-22T12:09:35;5.35;;;4.00;;
18290;SDS011;9271;48.590;8.866;2024-03-22T12:12:03;4.85;;;3.60;;
18290;SDS011;9271;48.590;8.866;2024-03-22T12:14:29;4.75;;;3.67;;
18290;SDS011;9271;48.590;8.866;2024-03-22T12:16:56;5.05;;;4.38;;
18290;SDS011;9271;48.590;8.866;2024-03-22T12:19:21;4.55;;;3.97;;
18290;SDS011;9271;48.590;8.866;2024-03-22T12:21:48;3.47;;;3.17;;
18290;SDS011;9271;48.590;8.866;2024-03-22T12:24:15;3.90;;;3.15;;
18290;SDS011;9271;48.590;8.866;2024-03-22T12:26:42;5.28;;;3.10;;
18290;SDS011;9271;48.590;8.866;2024-03-22T12:29:07;4.13;;;3.05;;
18290;SDS011;9271;48.590;8.866;2024-03-22T12:31:35;3.53;;;3.22;;
18290;SDS011;9271;48.590;8.866;2024-03-22T12:34:02;4.50;;;3.40;;
18290;SDS011;9271;48.590;8.866;2024-03-22T12:36:29;5.05;;;3.30;;
18290;SDS011;9271;48.590;8.866;2024-03-22T12:38:55;4.13;;;2.90;;
18290;SDS011;9271;48.590;8.866;2024-03-22T12:41:23;4.05;;;2.50;;
18290;SDS011;9271;48.590;8.866;2024-03-22T12:43:48;2.85;;;2.60;;
18290;SDS011;9271;48.590;8.866;2024-03-22T12:46:15;5.13;;;2.80;;
18290;SDS011;9271;48.590;8.866;2024-03-22T12:48:41;3.30;;;3.00;;
18290;SDS011;9271;48.590;8.866;2024-03-22T12:51:08;4.07;;;2.80;;
18290;SDS011;9271;48.590;8.866;2024-03-22T12:53:33;4.80;;;2.63;;
18290;SDS011;9271;48.590;8.866;2024-03-22T12:56:00;3.37;;;2.70;;
18290;SDS011;9271;48.590;8.866;2024-03-22T12:58:30;2.93;;;2.17;;
18290;SDS011;9271;48.590;8.866;2024-03-22T13:00:57;5.53;;;2.50;;
18290;SDS011;9271;48.590;8.866;2024-03-22T13:03:23;4.20;;;2.80;;
18290;SDS011;9271;48.590;8.866;2024-03-22T13:05:50;3.50;;;2.78;;
18290;SDS011;9271;48.590;8.866;2024-03-22T13:08:15;4.05;;;2.40;;
18290;SDS011;9271;48.590;8.866;2024-03-22T13:10:44;2.75;;;1.58;;
18290;SDS011;9271;48.590;8.866;2024-03-22T13:13:09;1.90;;;1.70;;
18290;SDS011;9271;48.590;8.866;2024-03-22T13:15:38;1.98;;;1.80;;
18290;SDS011;9271;48.590;8.866;2024-03-22T13:18:04;4.30;;;2.22;;
18290;SDS011;9271;48.590;8.866;2024-03-22T13:20:31;2.17;;;1.98;;
18290;SDS011;9271;48.590;8.866;2024-03-22T13:22:57;1.67;;;1.55;;
18290;SDS011;9271;48.590;8.866;2024-03-22T13:25:23;1.40;;;1.30;;
18290;SDS011;9271;48.590;8.866;2024-03-22T13:27:49;1.60;;;1.13;;
18290;SDS011;9271;48.590;8.866;2024-03-22T13:30:16;3.60;;;1.40;;
18290;SDS011;9271;48.590;8.866;2024-03-22T13:32:43;1.40;;;1.30;;
18290;SDS011;9271;48.590;8.866;2024-03-22T13:35:10;1.40;;;1.30;;
18290;SDS011;9271;48.590;8.866;2024-03-22T13:37:36;1.77;;;1.20;;
18290;SDS011;9271;48.590;8.866;2024-03-22T13:40:03;1.00;;;1.00;;
18290;SDS011;9271;48.590;8.866;2024-03-22T13:42:29;2.38;;;1.30;;
18290;SDS011;9271;48.590;8.866;2024-03-22T13:44:55;1.20;;;1.13;;
18290;SDS011;9271;48.590;8.866;2024-03-22T13:47:21;3.03;;;1.20;;
18290;SDS011;9271;48.590;8.866;2024-03-22T13:49:50;1.38;;;1.17;;
18290;SDS011;9271;48.590;8.866;2024-03-22T13:52:15;1.80;;;1.30;;
18290;SDS011;9271;48.590;8.866;2024-03-22T13:54:43;1.50;;;1.40;;
18290;SDS011;9271;48.590;8.866;2024-03-22T13:57:09;2.67;;;1.50;;
18290;SDS011;9271;48.590;8.866;2024-03-22T13:59:36;1.25;;;1.17;;
18290;SDS011;9271;48.590;8.866;2024-03-22T14:02:02;1.42;;;1.30;;
18290;SDS011;9271;48.590;8.866;2024-03-22T14:04:28;5.63;;;1.65;;
18290;SDS011;9271;48.590;8.866;2024-03-22T14:06:56;4.65;;;1.45;;
18290;SDS011;9271;48.590;8.866;2024-03-22T14:09:22;2.90;;;1.55;;
18290;SDS011;9271;48.590;8.866;2024-03-22T14:11:48;1.60;;;1.40;;
18290;SDS011;9271;48.590;8.866;2024-03-22T14:14:14;1.42;;;1.20;;
18290;SDS011;9271;48.590;8.866;2024-03-22T14:16:40;1.77;;;1.52;;
18290;SDS011;9271;48.590;8.866;2024-03-22T14:19:07;1.33;;;1.30;;
18290;SDS011;9271;48.590;8.866;2024-03-22T14:21:33;1.40;;;1.30;;
18290;SDS011;9271;48.590;8.866;2024-03-22T14:24:02;3.05;;;1.50;;
18290;SDS011;9271;48.590;8.866;2024-03-22T14:26:28;1.98;;;1.30;;
18290;SDS011;9271;48.590;8.866;2024-03-22T14:28:55;3.65;;;1.30;;
18290;SDS011;9271;48.590;8.866;2024-03-22T14:31:20;1.70;;;1.60;;
18290;SDS011;9271;48.590;8.866;2024-03-22T14:33:47;1.63;;;1.40;;
18290;SDS011;9271;48.590;8.866;2024-03-22T14:36:13;2.53;;;1.40;;
18290;SDS011;9271;48.590;8.866;2024-03-22T14:38:40;1.40;;;1.30;;
18290;SDS011;9271;48.590;8.866;2024-03-22T14:41:07;2.47;;;1.40;;
18290;SDS011;9271;48.590;8.866;2024-03-22T14:43:33;1.53;;;1.40;;
18290;SDS011;9271;48.590;8.866;2024-03-22T14:46:00;1.63;;;1.23;;
18290;SDS011;9271;48.590;8.866;2024-03-22T14:48:27;1.27;;;1.23;;